Portada
METAR-TAF:

METAR-TAF

Aeropuertos :

Aeropuerto Internacional de Irkutsk

Irkutsk, Rusia

latitud: 52-16N, longitud: 104-19E, altitud: 513 m

Observación

El informe se hizo hace 1 hora y 5 minutos, a las 05:00 UTC
Viento 8 kt del sur
Temperatura 26°C
Humedad 42%
Presión 1008 hPa
Visibilidad 10 km o más
sin nubes por debajo de 1500 m y sin presencia de cumulonimbus.

METAR: UIII 210500Z 17004MPS CAVOK 26/12 Q1008 R12/60D NOSIG RMK QFE714/0952

Hora: 14:05 (06:05 UTC)

Pronóstico

El informe se hizo hace 4 horas y 5 minutos, a las 02:00 UTC
Pronóstico válido del 21 a las 03 UTC al 22 a las 03 UTC
Viento 8 kt del sur
Visibilidad 10 km o más
Evolucionando progresivamente
del 21 a las 06 UTC al 21 a las 08 UTC
Nubes dispersas a una altura de 2000 ft, Cumulonimbus.

TAF: UIII 210200Z 2103/2203 18004MPS 9999 NSC BECMG 2106/2108 SCT020CB

Observaciones y pronósticos meteorológicos de más de 4000 aeropuertos (mensajes METAR y TAF).

Los puntos amarillos y rojos representan las estaciones disponibles.

Ponga el ratón en el punto deseado para ver el nombre de la estación.

Haga clic para ver las observaciones y los pronósticos meteorológicos.

Para cambiar el mapa : haga clic en los botones verdes con una cruz de color negro para hacer un zoom, en el botón verde con un guión para alejar o en las flechas verdes para mapas adyacentes.


METAR-TAF: